createdAt,value
2022-12-23T00:01:23.130Z,99440.22
2022-12-23T00:03:49.782Z,99429.97
2022-12-23T00:06:18.195Z,99439.47
2022-12-23T00:08:45.255Z,99442.91
2022-12-23T00:11:20.980Z,99433.75
2022-12-23T00:14:06.225Z,99440.22
2022-12-23T00:16:35.993Z,99439.44
2022-12-23T00:19:02.549Z,99442.91
2022-12-23T00:21:29.023Z,99447.47
2022-12-23T00:23:55.508Z,99428.81
2022-12-23T00:26:24.964Z,99436.44
2022-12-23T00:28:51.646Z,99432.25
2022-12-23T00:31:19.370Z,99426.16
2022-12-23T00:33:48.313Z,99419.75
2022-12-23T00:36:19.492Z,99409.13
2022-12-23T00:39:05.018Z,99420.88
2022-12-23T00:41:50.060Z,99425.84
2022-12-23T00:44:16.670Z,99423.53
2022-12-23T00:46:43.155Z,99416.31
2022-12-23T00:49:31.429Z,99417.47
2022-12-23T00:51:58.713Z,99411.38
2022-12-23T00:54:25.849Z,99416.34
2022-12-23T00:56:52.514Z,99421.63
2022-12-23T00:59:19.179Z,99415.19
2022-12-23T01:02:04.354Z,99419.75
2022-12-23T01:04:49.543Z,99420.88
2022-12-23T01:07:16.072Z,99418.16
2022-12-23T01:09:42.617Z,99417.44
2022-12-23T01:12:09.336Z,99423.50
2022-12-23T01:14:36.047Z,99421.66
2022-12-23T01:17:02.867Z,99427.31
2022-12-23T01:19:29.617Z,99436.44
2022-12-23T01:21:56.095Z,99430.34
2022-12-23T01:24:23.095Z,99429.63
2022-12-23T01:26:49.709Z,99429.25
2022-12-23T01:29:16.190Z,99434.94
2022-12-23T01:31:42.750Z,99443.28
2022-12-23T01:34:10.371Z,99447.81
2022-12-23T01:36:37.212Z,99462.25
2022-12-23T01:39:03.934Z,99459.22
2022-12-23T01:41:50.973Z,99468.75
2022-12-23T01:44:50.807Z,99466.44
2022-12-23T01:47:28.513Z,99472.13
2022-12-23T01:50:00.540Z,99468.31
2022-12-23T01:52:27.555Z,99475.91
2022-12-23T01:54:55.694Z,99483.53
2022-12-23T01:57:22.597Z,99480.81
2022-12-23T02:00:08.065Z,99485.44
2022-12-23T02:02:55.863Z,99490.72
2022-12-23T02:05:23.777Z,99485.81
2022-12-23T02:08:11.705Z,99488.47
2022-12-23T02:11:19.105Z,99487.72
2022-12-23T02:14:16.272Z,99488.06
2022-12-23T02:16:51.943Z,99493.72
2022-12-23T02:19:42.553Z,99497.19
2022-12-23T02:22:30.579Z,99513.44
2022-12-23T02:25:14.029Z,99507.78
2022-12-23T02:28:03.718Z,99512.34
2022-12-23T02:30:45.899Z,99513.09
2022-12-23T02:33:27.878Z,99524.88
2022-12-23T02:36:19.672Z,99521.09
2022-12-23T02:39:01.847Z,99523.38
2022-12-23T02:41:41.049Z,99533.59
2022-12-23T02:44:29.207Z,99529.09
2022-12-23T02:47:01.369Z,99531.38
2022-12-23T02:49:38.671Z,99536.69
2022-12-23T02:52:11.706Z,99532.13
2022-12-23T02:54:45.676Z,99535.16
2022-12-23T02:57:14.888Z,99538.19
2022-12-23T02:59:47.851Z,99543.47
2022-12-23T03:02:14.620Z,99540.81
2022-12-23T03:04:42.344Z,99535.16
2022-12-23T03:07:23.651Z,99532.84
2022-12-23T03:09:56.054Z,99530.59
2022-12-23T03:12:58.486Z,99519.22
2022-12-23T03:15:43.297Z,99531.72
2022-12-23T03:18:42.231Z,99530.59
2022-12-23T03:21:14.546Z,99538.88
2022-12-23T03:23:55.905Z,99546.47
2022-12-23T03:26:31.177Z,99548.00
2022-12-23T03:29:18.459Z,99551.03
2022-12-23T03:31:47.409Z,99550.69
2022-12-23T03:34:22.198Z,99549.53
2022-12-23T03:36:53.186Z,99556.00
2022-12-23T03:39:23.288Z,99543.47
2022-12-23T03:42:00.510Z,99553.00
2022-12-23T03:44:32.534Z,99559.00
2022-12-23T03:47:08.880Z,99567.63
2022-12-23T03:49:43.031Z,99570.03
2022-12-23T03:52:21.128Z,99568.34
2022-12-23T03:54:56.137Z,99578.75
2022-12-23T03:57:28.143Z,99588.66
2022-12-23T03:59:54.811Z,99584.47
2022-12-23T04:02:32.572Z,99596.94
2022-12-23T04:05:14.327Z,99594.28
2022-12-23T04:07:49.470Z,99592.69
2022-12-23T04:10:16.279Z,99593.66
2022-12-23T04:12:44.077Z,99602.88
2022-12-23T04:15:13.364Z,99607.81
2022-12-23T04:17:40.162Z,99608.16
2022-12-23T04:20:07.386Z,99612.31
2022-12-23T04:22:33.872Z,99620.06
2022-12-23T04:25:00.402Z,99616.41
2022-12-23T04:27:26.907Z,99606.44
2022-12-23T04:29:53.389Z,99613.88
2022-12-23T04:32:19.916Z,99618.44
2022-12-23T04:34:46.396Z,99613.09
2022-12-23T04:37:12.966Z,99612.69
2022-12-23T04:39:39.476Z,99605.31
2022-12-23T04:42:06.061Z,99608.63
2022-12-23T04:44:32.621Z,99600.59
2022-12-23T04:46:59.260Z,99613.47
2022-12-23T04:49:26.036Z,99611.56
2022-12-23T04:51:52.508Z,99620.78
2022-12-23T04:54:18.991Z,99629.13
2022-12-23T04:56:45.571Z,99634.44
2022-12-23T04:59:12.212Z,99638.38
2022-12-23T05:01:39.033Z,99632.22
2022-12-23T05:04:05.679Z,99625.22
2022-12-23T05:06:32.203Z,99626.06
2022-12-23T05:08:58.668Z,99627.16
2022-12-23T05:11:25.144Z,99646.88
2022-12-23T05:13:51.854Z,99639.97
2022-12-23T05:16:18.369Z,99635.97
2022-12-23T05:18:45.007Z,99632.75
2022-12-23T05:21:11.671Z,99628.06
2022-12-23T05:23:38.401Z,99629.69
2022-12-23T05:26:05.079Z,99642.44
2022-12-23T05:28:32.087Z,99648.16
2022-12-23T05:31:00.951Z,99649.22
2022-12-23T05:33:28.106Z,99642.69
2022-12-23T05:35:55.731Z,99650.06
2022-12-23T05:38:22.471Z,99645.13
2022-12-23T05:40:49.391Z,99644.44
2022-12-23T05:43:16.330Z,99643.28
2022-12-23T05:45:42.990Z,99660.34
2022-12-23T05:48:09.941Z,99652.00
2022-12-23T05:50:38.133Z,99652.31
2022-12-23T05:53:05.232Z,99659.28
2022-12-23T05:55:31.782Z,99651.81
2022-12-23T05:57:58.611Z,99649.53
2022-12-23T06:00:25.528Z,99655.94
2022-12-23T06:02:54.131Z,99660.88
2022-12-23T06:05:21.220Z,99655.72
2022-12-23T06:07:47.746Z,99659.75
2022-12-23T06:10:14.241Z,99655.56
2022-12-23T06:12:40.699Z,99660.91
2022-12-23T06:15:08.743Z,99663.19
2022-12-23T06:17:35.265Z,99665.56
2022-12-23T06:20:01.894Z,99667.91
2022-12-23T06:22:28.405Z,99665.59
2022-12-23T06:24:54.918Z,99657.75
2022-12-23T06:27:21.380Z,99665.69
2022-12-23T06:29:48.153Z,99668.97
2022-12-23T06:32:14.889Z,99672.16
2022-12-23T06:34:41.413Z,99676.31
2022-12-23T06:37:07.955Z,99670.63
2022-12-23T06:39:34.442Z,99685.25
2022-12-23T06:42:00.948Z,99687.28
2022-12-23T06:44:27.424Z,99696.06
2022-12-23T06:46:53.913Z,99694.06
2022-12-23T06:49:20.447Z,99693.09
2022-12-23T06:51:46.928Z,99696.84
2022-12-23T06:54:13.542Z,99694.41
2022-12-23T06:56:40.181Z,99699.78
2022-12-23T06:59:06.807Z,99704.31
2022-12-23T07:01:33.752Z,99707.44
2022-12-23T07:04:00.412Z,99713.09
2022-12-23T07:06:26.887Z,99704.31
2022-12-23T07:08:53.387Z,99696.56
2022-12-23T07:11:19.915Z,99692.06
2022-12-23T07:13:46.869Z,99693.00
2022-12-23T07:16:13.601Z,99685.38
2022-12-23T07:18:40.508Z,99689.13
2022-12-23T07:21:10.598Z,99681.50
2022-12-23T07:23:44.565Z,99683.50
2022-12-23T07:26:11.096Z,99687.03
2022-12-23T07:28:37.584Z,99690.50
2022-12-23T07:31:07.808Z,99688.59
2022-12-23T07:33:34.312Z,99698.41
2022-12-23T07:36:00.807Z,99696.16
2022-12-23T07:38:27.381Z,99707.09
2022-12-23T07:40:53.925Z,99709.88
2022-12-23T07:43:20.437Z,99717.84
2022-12-23T07:45:47.049Z,99725.81
2022-12-23T07:48:13.662Z,99727.28
2022-12-23T07:50:40.276Z,99733.31
2022-12-23T07:53:07.850Z,99738.50
2022-12-23T07:55:34.318Z,99742.59
2022-12-23T07:58:00.937Z,99744.56
2022-12-23T08:00:27.539Z,99734.91
2022-12-23T08:02:54.145Z,99737.97
2022-12-23T08:05:21.042Z,99736.53
2022-12-23T08:07:49.929Z,99725.94
2022-12-23T08:10:16.694Z,99735.06
2022-12-23T08:12:43.266Z,99734.69
2022-12-23T08:15:09.925Z,99732.38
2022-12-23T08:17:36.483Z,99723.50
2022-12-23T08:20:03.151Z,99728.25
2022-12-23T08:22:31.569Z,99722.16
2022-12-23T08:24:59.358Z,99722.94
2022-12-23T08:27:26.190Z,99722.91
2022-12-23T08:29:52.828Z,99720.25
2022-12-23T08:32:19.343Z,99720.25
2022-12-23T08:34:45.974Z,99723.28
2022-12-23T08:37:12.674Z,99723.66
2022-12-23T08:39:39.234Z,99730.47
2022-12-23T08:42:05.845Z,99726.72
2022-12-23T08:44:32.592Z,99719.09
2022-12-23T08:46:59.337Z,99717.59
2022-12-23T08:49:25.827Z,99714.56
2022-12-23T08:51:52.399Z,99715.31
2022-12-23T08:54:20.389Z,99711.47
2022-12-23T08:56:47.072Z,99718.31
2022-12-23T08:59:19.013Z,99727.84
2022-12-23T09:01:47.236Z,99733.16
2022-12-23T09:04:13.962Z,99737.31
2022-12-23T09:06:42.399Z,99733.88
2022-12-23T09:09:11.177Z,99732.81
2022-12-23T09:11:38.172Z,99733.94
2022-12-23T09:14:05.511Z,99735.84
2022-12-23T09:16:32.468Z,99738.50
2022-12-23T09:18:59.203Z,99739.25
2022-12-23T09:21:25.769Z,99744.56
2022-12-23T09:23:52.549Z,99754.47
2022-12-23T09:26:21.855Z,99751.44
2022-12-23T09:28:48.454Z,99739.66
2022-12-23T09:31:15.231Z,99736.63
2022-12-23T09:33:42.005Z,99744.59
2022-12-23T09:36:08.906Z,99735.06
2022-12-23T09:38:36.112Z,99732.81
2022-12-23T09:41:29.896Z,99722.53
2022-12-23T09:44:14.448Z,99710.69
2022-12-23T09:46:56.437Z,99712.91
2022-12-23T09:49:23.879Z,99723.69
2022-12-23T09:51:54.053Z,99729.00
2022-12-23T09:54:22.287Z,99735.81
2022-12-23T09:56:53.717Z,99721.44
2022-12-23T09:59:42.213Z,99720.25
2022-12-23T10:02:24.984Z,99724.44
2022-12-23T10:04:57.481Z,99738.09
2022-12-23T10:07:32.908Z,99730.47
2022-12-23T10:10:06.085Z,99725.97
2022-12-23T10:12:44.421Z,99716.03
2022-12-23T10:15:29.657Z,99701.97
2022-12-23T10:18:02.091Z,99706.94
2022-12-23T10:20:39.286Z,99703.13
2022-12-23T10:23:13.657Z,99694.75
2022-12-23T10:25:48.867Z,99697.03
2022-12-23T10:28:15.480Z,99683.31
2022-12-23T10:33:42.303Z,99682.22
2022-12-23T10:36:26.287Z,99680.25
2022-12-23T10:39:34.591Z,99674.97
2022-12-23T10:42:31.098Z,99671.81
2022-12-23T10:45:21.922Z,99674.75
2022-12-23T10:48:06.094Z,99659.44
2022-12-23T10:50:35.763Z,99657.09
2022-12-23T10:53:06.250Z,99665.16
2022-12-23T10:55:36.127Z,99663.28
2022-12-23T10:58:23.531Z,99661.13
2022-12-23T11:00:59.335Z,99658.81
2022-12-23T11:03:36.149Z,99642.88
2022-12-23T11:06:07.156Z,99630.06
2022-12-23T11:08:36.259Z,99625.06
2022-12-23T11:11:03.819Z,99623.69
2022-12-23T11:13:37.741Z,99628.63
2022-12-23T11:16:25.591Z,99619.91
2022-12-23T11:18:58.812Z,99619.91
2022-12-23T11:21:26.423Z,99615.31
2022-12-23T11:24:16.593Z,99608.03
2022-12-23T11:26:44.857Z,99599.22
2022-12-23T11:29:25.423Z,99591.25
2022-12-23T11:31:52.416Z,99592.09
2022-12-23T11:34:24.351Z,99572.25
2022-12-23T11:37:03.281Z,99564.31
2022-12-23T11:39:34.925Z,99567.34
2022-12-23T11:42:26.651Z,99553.59
2022-12-23T11:44:57.329Z,99556.78
2022-12-23T11:47:23.792Z,99559.78
2022-12-23T11:49:53.665Z,99551.84
2022-12-23T11:52:22.626Z,99532.03
2022-12-23T11:54:55.593Z,99548.75
2022-12-23T11:57:40.629Z,99534.31
2022-12-23T12:00:20.674Z,99531.69
2022-12-23T12:02:51.556Z,99525.75
2022-12-23T12:05:41.064Z,99517.13
2022-12-23T12:08:14.777Z,99507.66
2022-12-23T12:10:42.635Z,99503.94
2022-12-23T12:13:27.618Z,99502.38
2022-12-23T12:16:00.823Z,99492.22
2022-12-23T12:18:28.163Z,99488.41
2022-12-23T12:21:05.489Z,99484.63
2022-12-23T12:23:44.457Z,99481.94
2022-12-23T12:26:27.673Z,99472.59
2022-12-23T12:29:11.906Z,99467.25
2022-12-23T12:31:45.346Z,99477.50
2022-12-23T12:34:20.456Z,99473.28
2022-12-23T12:36:56.150Z,99476.38
2022-12-23T12:39:51.825Z,99465.09
2022-12-23T12:42:30.112Z,99467.22
2022-12-23T12:45:23.369Z,99465.56
2022-12-23T12:48:27.434Z,99454.78
2022-12-23T12:51:11.514Z,99452.38
2022-12-23T12:53:46.078Z,99450.00
2022-12-23T12:56:25.377Z,99455.88
2022-12-23T12:58:51.861Z,99445.47
2022-12-23T13:01:28.340Z,99443.22
2022-12-23T13:04:07.120Z,99436.28
2022-12-23T13:06:58.571Z,99411.38
2022-12-23T13:09:37.896Z,99413.72
2022-12-23T13:12:22.275Z,99405.66
2022-12-23T13:15:01.602Z,99402.38
2022-12-23T13:17:38.291Z,99396.84
2022-12-23T13:20:33.168Z,99387.34
2022-12-23T13:23:41.860Z,99382.53
2022-12-23T13:26:08.404Z,99372.19
2022-12-23T13:29:06.383Z,99360.22
2022-12-23T13:31:46.195Z,99356.66
2022-12-23T13:34:37.249Z,99347.81
2022-12-23T13:37:13.197Z,99351.13
2022-12-23T13:39:57.638Z,99348.00
2022-12-23T13:42:39.590Z,99354.84
2022-12-23T13:45:13.916Z,99340.72
2022-12-23T13:48:04.518Z,99340.06
2022-12-23T13:50:44.310Z,99336.41
2022-12-23T13:53:28.908Z,99329.19
2022-12-23T13:56:22.347Z,99331.56
2022-12-23T13:58:49.951Z,99322.22
2022-12-23T14:01:16.620Z,99324.59
2022-12-23T14:03:43.877Z,99318.91
2022-12-23T14:06:25.982Z,99311.03
2022-12-23T14:08:53.762Z,99296.13
2022-12-23T14:11:33.868Z,99321.06
2022-12-23T14:14:03.911Z,99319.97
2022-12-23T14:16:55.354Z,99312.91
2022-12-23T14:19:50.193Z,99289.97
2022-12-23T14:22:40.348Z,99299.69
2022-12-23T14:25:43.587Z,99286.13
2022-12-23T14:28:13.126Z,99286.53
2022-12-23T14:30:45.000Z,99280.75
2022-12-23T14:33:26.973Z,99263.00
2022-12-23T14:35:58.346Z,99268.22
2022-12-23T14:38:25.008Z,99249.94
2022-12-23T14:41:19.073Z,99247.56
2022-12-23T14:43:45.608Z,99247.16
2022-12-23T14:46:35.194Z,99242.63
2022-12-23T14:49:29.702Z,99235.25
2022-12-23T14:51:51.842Z,99237.19
2022-12-23T14:54:38.222Z,99224.13
2022-12-23T14:57:19.097Z,99229.97
2022-12-23T15:00:02.817Z,99235.44
2022-12-23T15:02:35.544Z,99231.75
2022-12-23T15:05:02.490Z,99238.16
2022-12-23T15:07:36.444Z,99237.75
2022-12-23T15:10:06.380Z,99227.19
2022-12-23T15:12:37.265Z,99237.31
2022-12-23T15:15:14.276Z,99246.72
2022-12-23T15:17:41.218Z,99260.94
2022-12-23T15:20:15.624Z,99249.78
2022-12-23T15:22:44.843Z,99261.25
2022-12-23T15:25:25.550Z,99254.22
2022-12-23T15:28:00.871Z,99240.84
2022-12-23T15:30:33.886Z,99226.09
2022-12-23T15:33:04.007Z,99248.03
2022-12-23T15:35:33.289Z,99244.69
2022-12-23T15:38:01.596Z,99241.19
2022-12-23T15:40:34.441Z,99246.56
2022-12-23T15:43:02.705Z,99273.66
2022-12-23T15:45:29.192Z,99267.59
2022-12-23T15:47:55.817Z,99265.88
2022-12-23T15:50:22.758Z,99262.09
2022-12-23T15:52:50.383Z,99243.78
2022-12-23T15:55:31.905Z,99252.16
2022-12-23T15:57:59.758Z,99253.81
2022-12-23T16:00:31.268Z,99246.78
2022-12-23T16:03:01.106Z,99244.59
2022-12-23T16:05:35.691Z,99238.03
2022-12-23T16:08:31.700Z,99236.50
2022-12-23T16:11:19.018Z,99236.56
2022-12-23T16:14:01.205Z,99226.88
2022-12-23T16:16:39.733Z,99227.28
2022-12-23T16:19:48.837Z,99226.66
2022-12-23T16:22:33.003Z,99226.03
2022-12-23T16:25:03.302Z,99210.44
2022-12-23T16:27:42.211Z,99216.44
2022-12-23T16:30:15.283Z,99211.59
2022-12-23T16:32:50.001Z,99218.41
2022-12-23T16:35:32.188Z,99219.38
2022-12-23T16:38:23.092Z,99218.44
2022-12-23T16:40:54.647Z,99218.78
2022-12-23T16:43:22.731Z,99226.97
2022-12-23T16:45:54.992Z,99223.13
2022-12-23T16:48:32.956Z,99221.88
2022-12-23T16:51:00.879Z,99223.34
2022-12-23T16:53:27.803Z,99224.44
2022-12-23T16:56:00.149Z,99228.47
2022-12-23T16:58:27.611Z,99245.34
2022-12-23T17:00:54.357Z,99237.47
2022-12-23T17:03:21.256Z,99237.88
2022-12-23T17:05:48.376Z,99245.47
2022-12-23T17:08:15.127Z,99244.44
2022-12-23T17:10:44.379Z,99267.38
2022-12-23T17:13:16.745Z,99274.94
2022-12-23T17:15:43.468Z,99274.88
2022-12-23T17:18:12.844Z,99269.75
2022-12-23T17:20:39.648Z,99253.25
2022-12-23T17:23:06.613Z,99265.88
2022-12-23T17:25:33.157Z,99273.09
2022-12-23T17:27:59.747Z,99251.72
2022-12-23T17:30:26.325Z,99236.69
2022-12-23T17:32:56.607Z,99264.50
2022-12-23T17:35:24.149Z,99262.16
2022-12-23T17:37:51.178Z,99262.53
2022-12-23T17:40:18.123Z,99270.13
2022-12-23T17:42:45.461Z,99284.25
2022-12-23T17:45:25.691Z,99279.50
2022-12-23T17:47:52.757Z,99288.38
2022-12-23T17:50:20.782Z,99289.66
2022-12-23T17:52:47.728Z,99294.97
2022-12-23T17:55:21.081Z,99288.84
2022-12-23T17:57:47.739Z,99287.38
2022-12-23T18:00:25.127Z,99282.22
2022-12-23T18:02:54.566Z,99293.53
2022-12-23T18:05:30.054Z,99289.38
2022-12-23T18:07:58.808Z,99294.63
2022-12-23T18:10:33.928Z,99300.94
2022-12-23T18:13:03.244Z,99298.84
2022-12-23T18:15:35.439Z,99314.66
2022-12-23T18:18:12.572Z,99302.53
2022-12-23T18:20:41.226Z,99301.19
2022-12-23T18:23:13.781Z,99307.53
2022-12-23T18:25:41.114Z,99310.19
2022-12-23T18:28:09.061Z,99327.63
2022-12-23T18:30:35.635Z,99320.75
2022-12-23T18:33:02.248Z,99323.50
2022-12-23T18:35:39.570Z,99329.38
2022-12-23T18:38:06.163Z,99338.41
2022-12-23T18:40:33.347Z,99337.72
2022-12-23T18:43:00.544Z,99355.38
2022-12-23T18:45:37.855Z,99353.44
2022-12-23T18:48:07.308Z,99350.66
2022-12-23T18:50:36.008Z,99361.69
2022-12-23T18:53:02.857Z,99360.69
2022-12-23T18:55:32.541Z,99372.81
2022-12-23T18:58:00.854Z,99374.34
2022-12-23T19:00:30.670Z,99390.34
2022-12-23T19:02:57.864Z,99381.81
2022-12-23T19:05:27.287Z,99388.88
2022-12-23T19:07:56.016Z,99380.06
2022-12-23T19:10:33.121Z,99395.03
2022-12-23T19:13:00.337Z,99399.09
2022-12-23T19:15:27.975Z,99408.47
2022-12-23T19:17:54.450Z,99405.50
2022-12-23T19:20:21.009Z,99405.50
2022-12-23T19:22:48.051Z,99414.50
2022-12-23T19:25:17.808Z,99430.34
2022-12-23T19:27:45.471Z,99425.38
2022-12-23T19:30:14.468Z,99420.03
2022-12-23T19:32:41.111Z,99427.78
2022-12-23T19:35:08.335Z,99428.38
2022-12-23T19:37:36.329Z,99441.25
2022-12-23T19:40:03.190Z,99433.28
2022-12-23T19:42:30.508Z,99453.31
2022-12-23T19:44:57.100Z,99441.88
2022-12-23T19:47:23.637Z,99450.31
2022-12-23T19:49:50.282Z,99458.53
2022-12-23T19:52:16.827Z,99471.69
2022-12-23T19:54:43.445Z,99465.91
2022-12-23T19:57:09.947Z,99471.91
2022-12-23T19:59:36.480Z,99483.63
2022-12-23T20:02:03.007Z,99474.13
2022-12-23T20:04:29.522Z,99482.16
2022-12-23T20:06:56.026Z,99467.63
2022-12-23T20:09:22.626Z,99475.53
2022-12-23T20:11:49.190Z,99476.94
2022-12-23T20:14:18.475Z,99493.53
2022-12-23T20:16:45.082Z,99495.69
2022-12-23T20:19:11.701Z,99509.94
2022-12-23T20:21:38.529Z,99500.72
2022-12-23T20:24:06.240Z,99507.47
2022-12-23T20:26:32.917Z,99505.44
2022-12-23T20:28:59.691Z,99518.22
2022-12-23T20:31:29.273Z,99531.19
2022-12-23T20:33:57.093Z,99530.38
2022-12-23T20:36:26.877Z,99527.63
2022-12-23T20:38:53.618Z,99547.19
2022-12-23T20:41:23.164Z,99551.25
2022-12-23T20:44:23.510Z,99544.81
2022-12-23T20:46:36.552Z,99552.88
2022-12-23T20:49:03.563Z,99556.94
2022-12-23T20:51:30.045Z,99549.81
2022-12-23T20:54:00.892Z,99544.13
2022-12-23T20:56:29.279Z,99551.19
2022-12-23T20:59:00.168Z,99555.25
2022-12-23T21:01:38.598Z,99547.69
2022-12-23T21:04:07.882Z,99555.53
2022-12-23T21:06:35.313Z,99562.63
2022-12-23T21:09:04.883Z,99570.94
2022-12-23T21:11:34.536Z,99558.41
2022-12-23T21:14:06.117Z,99565.97
2022-12-23T21:16:35.901Z,99567.41
2022-12-23T21:19:03.272Z,99565.16
2022-12-23T21:21:31.686Z,99581.25
2022-12-23T21:24:04.274Z,99591.19
2022-12-23T21:26:32.938Z,99604.00
2022-12-23T21:29:01.234Z,99592.88
2022-12-23T21:31:29.396Z,99595.56
2022-12-23T21:33:56.529Z,99603.25
2022-12-23T21:36:25.598Z,99618.03
2022-12-23T21:38:52.615Z,99603.25
2022-12-23T21:41:21.881Z,99604.69
2022-12-23T21:43:49.083Z,99606.22
2022-12-23T21:46:19.397Z,99616.72
2022-12-23T21:48:46.678Z,99625.28
2022-12-23T21:51:26.177Z,99615.00
2022-12-23T21:53:54.483Z,99620.75
2022-12-23T21:56:26.496Z,99622.00
2022-12-23T21:59:01.556Z,99631.56
2022-12-23T22:01:28.657Z,99641.06
2022-12-23T22:03:56.591Z,99646.41
2022-12-23T22:06:36.502Z,99658.16
2022-12-23T22:09:05.104Z,99667.88
2022-12-23T22:11:33.872Z,99658.50
2022-12-23T22:14:01.972Z,99655.53
2022-12-23T22:16:30.233Z,99655.50
2022-12-23T22:18:58.190Z,99666.06
2022-12-23T22:21:27.081Z,99663.44
2022-12-23T22:23:54.843Z,99668.06
2022-12-23T22:26:25.619Z,99670.38
2022-12-23T22:28:58.141Z,99670.38
2022-12-23T22:31:45.288Z,99673.69
2022-12-23T22:34:15.354Z,99677.63
2022-12-23T22:36:42.423Z,99675.34
2022-12-23T22:39:17.722Z,99670.72
2022-12-23T22:41:47.147Z,99677.91
2022-12-23T22:44:13.767Z,99689.38
2022-12-23T22:46:40.586Z,99687.88
2022-12-23T22:49:07.161Z,99685.81
2022-12-23T22:51:33.806Z,99700.81
2022-12-23T22:54:02.866Z,99703.50
2022-12-23T22:56:29.544Z,99708.09
2022-12-23T22:58:56.174Z,99719.78
2022-12-23T23:01:28.289Z,99721.75
2022-12-23T23:03:59.338Z,99718.34
2022-12-23T23:06:31.242Z,99734.66
2022-12-23T23:08:58.256Z,99742.34
2022-12-23T23:11:26.856Z,99749.91
2022-12-23T23:13:54.315Z,99750.22
2022-12-23T23:16:21.272Z,99759.00
2022-12-23T23:18:48.158Z,99762.81
2022-12-23T23:21:14.801Z,99773.47
2022-12-23T23:23:41.631Z,99770.84
2022-12-23T23:26:10.897Z,99767.03
2022-12-23T23:28:39.309Z,99771.19
2022-12-23T23:31:39.807Z,99759.75
2022-12-23T23:33:54.129Z,99773.53
2022-12-23T23:36:20.723Z,99783.75
2022-12-23T23:38:47.347Z,99780.75
2022-12-23T23:41:17.426Z,99789.13
2022-12-23T23:43:48.880Z,99802.78
2022-12-23T23:46:15.433Z,99797.47
2022-12-23T23:48:42.033Z,99788.75
2022-12-23T23:51:08.595Z,99801.31
2022-12-23T23:53:35.252Z,99805.88
2022-12-23T23:56:03.967Z,99797.84
2022-12-23T23:58:30.588Z,99803.19
